SPCL/PCL METAR and TAF weather

Enter ICAO airport designator
Station Type Date Time Source
SPCL METAR 2020/01/28 11:00 UTC NOAA

SPCL 281100Z 26002KT 9999 SCT020 SCT080 25/24 Q1010 RMK PP000


Station Type Date Time Source
SPCL Decoded METAR 2020/01/28 11:00 UTC NOAA

Pucallpa, Peru (SPCL) 08-25S 074-36W 149M
Jan 28, 2020 - 06:00 AM EST / 2020.01.28 1100 UTC
Wind: from the W (260 degrees) at 2 MPH (2 KT):0
Visibility: greater than 7 mile(s):0
Sky conditions: partly cloudy
Temperature: 77 F (25 C)
Dew Point: 75 F (24 C)
Relative Humidity: 94%
Pressure (altimeter): 29.83 in. Hg (1010 hPa)
ob: SPCL 281100Z 26002KT 9999 SCT020 SCT080 25/24 Q1010 RMK PP000
cycle: 11

Station Type Date Time Source
SPCL TAF 2020/01/28 12:33 UTC NOAA

TAF SPCL 281100Z 2812/2912 00000KT 9999 SCT020 TX34/2820Z TN24/2911Z
TEMPO 2813/2817 5000 RADZ BKN015 BKN080
TEMPO 2818/2822 BKN015
TEMPO 2909/2912 8000 BKN012

Example: see airport list